sensor_id;sensor_type;location;lat;lon;timestamp;temperature;humidity
54272;DHT22;40184;53.362;5.216;2023-05-07T00:00:01;14.70;99.90
54272;DHT22;40184;53.362;5.216;2023-05-07T00:02:26;14.70;99.90
54272;DHT22;40184;53.362;5.216;2023-05-07T00:04:52;14.60;99.90
54272;DHT22;40184;53.362;5.216;2023-05-07T00:07:18;14.60;99.90
54272;DHT22;40184;53.362;5.216;2023-05-07T00:09:44;14.60;99.90
54272;DHT22;40184;53.362;5.216;2023-05-07T00:12:10;14.60;99.90
54272;DHT22;40184;53.362;5.216;2023-05-07T00:14:36;14.50;99.90
54272;DHT22;40184;53.362;5.216;2023-05-07T00:17:01;14.50;99.90
54272;DHT22;40184;53.362;5.216;2023-05-07T00:19:27;14.50;99.90
54272;DHT22;40184;53.362;5.216;2023-05-07T00:21:53;14.50;99.90
54272;DHT22;40184;53.362;5.216;2023-05-07T00:24:22;14.50;99.90
54272;DHT22;40184;53.362;5.216;2023-05-07T00:26:47;14.40;99.90
54272;DHT22;40184;53.362;5.216;2023-05-07T00:29:13;14.50;99.90
54272;DHT22;40184;53.362;5.216;2023-05-07T00:31:39;14.40;99.90
54272;DHT22;40184;53.362;5.216;2023-05-07T00:34:04;14.40;99.90
54272;DHT22;40184;53.362;5.216;2023-05-07T00:36:31;14.40;99.90
54272;DHT22;40184;53.362;5.216;2023-05-07T00:38:58;14.40;99.90
54272;DHT22;40184;53.362;5.216;2023-05-07T00:41:25;14.40;99.90
54272;DHT22;40184;53.362;5.216;2023-05-07T00:43:51;14.40;99.90
54272;DHT22;40184;53.362;5.216;2023-05-07T00:46:17;14.40;99.90
54272;DHT22;40184;53.362;5.216;2023-05-07T00:48:45;14.30;99.90
54272;DHT22;40184;53.362;5.216;2023-05-07T00:51:11;14.30;99.90
54272;DHT22;40184;53.362;5.216;2023-05-07T00:53:37;14.30;99.90
54272;DHT22;40184;53.362;5.216;2023-05-07T00:56:03;14.30;99.90
54272;DHT22;40184;53.362;5.216;2023-05-07T00:58:30;14.30;99.90
54272;DHT22;40184;53.362;5.216;2023-05-07T01:00:56;14.30;99.90
54272;DHT22;40184;53.362;5.216;2023-05-07T01:03:21;14.30;99.90
54272;DHT22;40184;53.362;5.216;2023-05-07T01:05:48;14.20;99.90
54272;DHT22;40184;53.362;5.216;2023-05-07T01:08:15;14.20;99.90
54272;DHT22;40184;53.362;5.216;2023-05-07T01:10:42;14.20;99.90
54272;DHT22;40184;53.362;5.216;2023-05-07T01:13:12;14.20;99.90
54272;DHT22;40184;53.362;5.216;2023-05-07T01:15:39;14.20;99.90
54272;DHT22;40184;53.362;5.216;2023-05-07T01:18:07;14.20;99.90
54272;DHT22;40184;53.362;5.216;2023-05-07T01:20:33;14.10;99.90
54272;DHT22;40184;53.362;5.216;2023-05-07T01:23:00;14.10;99.90
54272;DHT22;40184;53.362;5.216;2023-05-07T01:25:26;14.10;99.90
54272;DHT22;40184;53.362;5.216;2023-05-07T01:27:52;14.10;99.90
54272;DHT22;40184;53.362;5.216;2023-05-07T01:30:18;14.10;99.90
54272;DHT22;40184;53.362;5.216;2023-05-07T01:32:56;14.10;99.90
54272;DHT22;40184;53.362;5.216;2023-05-07T01:35:29;14.10;99.90
54272;DHT22;40184;53.362;5.216;2023-05-07T01:37:56;14.10;99.90
54272;DHT22;40184;53.362;5.216;2023-05-07T01:40:23;14.10;99.90
54272;DHT22;40184;53.362;5.216;2023-05-07T01:42:50;14.00;99.90
54272;DHT22;40184;53.362;5.216;2023-05-07T01:45:16;14.00;99.90
54272;DHT22;40184;53.362;5.216;2023-05-07T01:47:42;14.00;99.90
54272;DHT22;40184;53.362;5.216;2023-05-07T01:50:09;14.00;99.90
54272;DHT22;40184;53.362;5.216;2023-05-07T01:52:37;14.00;99.90
54272;DHT22;40184;53.362;5.216;2023-05-07T01:55:03;14.00;99.90
54272;DHT22;40184;53.362;5.216;2023-05-07T01:57:30;14.00;99.90
54272;DHT22;40184;53.362;5.216;2023-05-07T01:59:56;14.00;99.90
54272;DHT22;40184;53.362;5.216;2023-05-07T02:02:21;14.00;99.90
54272;DHT22;40184;53.362;5.216;2023-05-07T02:04:47;14.00;99.90
54272;DHT22;40184;53.362;5.216;2023-05-07T02:07:13;14.00;99.90
54272;DHT22;40184;53.362;5.216;2023-05-07T02:09:38;14.00;99.90
54272;DHT22;40184;53.362;5.216;2023-05-07T02:12:04;14.00;99.90
54272;DHT22;40184;53.362;5.216;2023-05-07T02:14:30;14.00;99.90
54272;DHT22;40184;53.362;5.216;2023-05-07T02:16:55;14.00;99.90
54272;DHT22;40184;53.362;5.216;2023-05-07T02:19:21;14.00;99.90
54272;DHT22;40184;53.362;5.216;2023-05-07T02:21:47;14.00;99.90
54272;DHT22;40184;53.362;5.216;2023-05-07T02:24:13;14.00;99.90
54272;DHT22;40184;53.362;5.216;2023-05-07T02:26:40;14.00;99.90
54272;DHT22;40184;53.362;5.216;2023-05-07T02:29:06;14.00;99.90
54272;DHT22;40184;53.362;5.216;2023-05-07T02:31:32;14.00;99.90
54272;DHT22;40184;53.362;5.216;2023-05-07T02:34:00;14.00;99.90
54272;DHT22;40184;53.362;5.216;2023-05-07T02:36:25;14.10;99.90
54272;DHT22;40184;53.362;5.216;2023-05-07T02:38:52;14.10;99.90
54272;DHT22;40184;53.362;5.216;2023-05-07T02:41:18;14.10;99.90
54272;DHT22;40184;53.362;5.216;2023-05-07T02:43:43;14.10;99.90
54272;DHT22;40184;53.362;5.216;2023-05-07T02:46:09;14.00;99.90
54272;DHT22;40184;53.362;5.216;2023-05-07T02:48:35;14.00;99.90
54272;DHT22;40184;53.362;5.216;2023-05-07T02:51:01;14.00;99.90
54272;DHT22;40184;53.362;5.216;2023-05-07T02:53:27;14.10;99.90
54272;DHT22;40184;53.362;5.216;2023-05-07T02:55:54;14.10;99.90
54272;DHT22;40184;53.362;5.216;2023-05-07T02:58:19;14.00;99.90
54272;DHT22;40184;53.362;5.216;2023-05-07T03:00:45;14.00;99.90
54272;DHT22;40184;53.362;5.216;2023-05-07T03:03:11;14.00;99.90
54272;DHT22;40184;53.362;5.216;2023-05-07T03:05:37;14.00;99.90
54272;DHT22;40184;53.362;5.216;2023-05-07T03:08:02;14.00;99.90
54272;DHT22;40184;53.362;5.216;2023-05-07T03:10:29;13.90;99.90
54272;DHT22;40184;53.362;5.216;2023-05-07T03:12:55;14.00;99.90
54272;DHT22;40184;53.362;5.216;2023-05-07T03:15:21;14.00;99.90
54272;DHT22;40184;53.362;5.216;2023-05-07T03:17:48;13.90;99.90
54272;DHT22;40184;53.362;5.216;2023-05-07T03:20:13;14.00;99.90
54272;DHT22;40184;53.362;5.216;2023-05-07T03:22:39;13.90;99.90
54272;DHT22;40184;53.362;5.216;2023-05-07T03:25:06;13.90;99.90
54272;DHT22;40184;53.362;5.216;2023-05-07T03:27:32;13.90;99.90
54272;DHT22;40184;53.362;5.216;2023-05-07T03:29:57;13.90;99.90
54272;DHT22;40184;53.362;5.216;2023-05-07T03:32:23;13.80;99.90
54272;DHT22;40184;53.362;5.216;2023-05-07T03:34:49;13.90;99.90
54272;DHT22;40184;53.362;5.216;2023-05-07T03:37:15;13.80;99.90
54272;DHT22;40184;53.362;5.216;2023-05-07T03:39:40;13.80;99.90
54272;DHT22;40184;53.362;5.216;2023-05-07T03:42:06;13.80;99.90
54272;DHT22;40184;53.362;5.216;2023-05-07T03:44:32;13.80;99.90
54272;DHT22;40184;53.362;5.216;2023-05-07T03:46:57;13.80;99.90
54272;DHT22;40184;53.362;5.216;2023-05-07T03:49:23;13.80;99.90
54272;DHT22;40184;53.362;5.216;2023-05-07T03:51:48;13.80;99.90
54272;DHT22;40184;53.362;5.216;2023-05-07T03:54:14;13.80;99.90
54272;DHT22;40184;53.362;5.216;2023-05-07T03:56:40;13.70;99.90
54272;DHT22;40184;53.362;5.216;2023-05-07T03:59:05;13.70;99.90
54272;DHT22;40184;53.362;5.216;2023-05-07T04:01:31;13.80;99.90
54272;DHT22;40184;53.362;5.216;2023-05-07T04:03:57;13.70;99.90
54272;DHT22;40184;53.362;5.216;2023-05-07T04:06:22;13.70;99.90
54272;DHT22;40184;53.362;5.216;2023-05-07T04:08:48;13.70;99.90
54272;DHT22;40184;53.362;5.216;2023-05-07T04:11:14;13.70;99.90
54272;DHT22;40184;53.362;5.216;2023-05-07T04:13:39;13.70;99.90
54272;DHT22;40184;53.362;5.216;2023-05-07T04:16:05;13.60;99.90
54272;DHT22;40184;53.362;5.216;2023-05-07T04:18:31;13.60;99.90
54272;DHT22;40184;53.362;5.216;2023-05-07T04:20:57;13.60;99.90
54272;DHT22;40184;53.362;5.216;2023-05-07T04:23:22;13.60;99.90
54272;DHT22;40184;53.362;5.216;2023-05-07T04:25:48;13.60;99.90
54272;DHT22;40184;53.362;5.216;2023-05-07T04:28:14;13.60;99.90
54272;DHT22;40184;53.362;5.216;2023-05-07T04:30:39;13.60;99.90
54272;DHT22;40184;53.362;5.216;2023-05-07T04:33:07;13.60;99.90
54272;DHT22;40184;53.362;5.216;2023-05-07T04:35:33;13.60;99.90
54272;DHT22;40184;53.362;5.216;2023-05-07T04:37:58;13.60;99.90
54272;DHT22;40184;53.362;5.216;2023-05-07T04:40:24;13.60;99.90
54272;DHT22;40184;53.362;5.216;2023-05-07T04:42:50;13.60;99.90
54272;DHT22;40184;53.362;5.216;2023-05-07T04:45:16;13.60;99.90
54272;DHT22;40184;53.362;5.216;2023-05-07T04:47:42;13.50;99.90
54272;DHT22;40184;53.362;5.216;2023-05-07T04:50:08;13.50;99.90
54272;DHT22;40184;53.362;5.216;2023-05-07T04:52:34;13.50;99.90
54272;DHT22;40184;53.362;5.216;2023-05-07T04:55:00;13.50;99.90
54272;DHT22;40184;53.362;5.216;2023-05-07T04:57:26;13.50;99.90
54272;DHT22;40184;53.362;5.216;2023-05-07T04:59:52;13.50;99.90
54272;DHT22;40184;53.362;5.216;2023-05-07T05:02:18;13.50;99.90
54272;DHT22;40184;53.362;5.216;2023-05-07T05:04:44;13.50;99.90
54272;DHT22;40184;53.362;5.216;2023-05-07T05:07:09;13.50;99.90
54272;DHT22;40184;53.362;5.216;2023-05-07T05:09:35;13.50;99.90
54272;DHT22;40184;53.362;5.216;2023-05-07T05:12:01;13.50;99.90
54272;DHT22;40184;53.362;5.216;2023-05-07T05:14:26;13.50;99.90
54272;DHT22;40184;53.362;5.216;2023-05-07T05:16:52;13.50;99.90
54272;DHT22;40184;53.362;5.216;2023-05-07T05:19:18;13.60;99.90
54272;DHT22;40184;53.362;5.216;2023-05-07T05:21:43;13.50;99.90
54272;DHT22;40184;53.362;5.216;2023-05-07T05:24:09;13.50;99.90
54272;DHT22;40184;53.362;5.216;2023-05-07T05:26:35;13.50;99.90
54272;DHT22;40184;53.362;5.216;2023-05-07T05:29:00;13.50;99.90
54272;DHT22;40184;53.362;5.216;2023-05-07T05:31:26;13.50;99.90
54272;DHT22;40184;53.362;5.216;2023-05-07T05:33:52;13.40;99.90
54272;DHT22;40184;53.362;5.216;2023-05-07T05:36:17;13.50;99.90
54272;DHT22;40184;53.362;5.216;2023-05-07T05:38:43;13.40;99.90
54272;DHT22;40184;53.362;5.216;2023-05-07T05:41:10;13.40;99.90
54272;DHT22;40184;53.362;5.216;2023-05-07T05:43:35;13.40;99.90
54272;DHT22;40184;53.362;5.216;2023-05-07T05:46:01;13.40;99.90
54272;DHT22;40184;53.362;5.216;2023-05-07T05:48:28;13.30;99.90
54272;DHT22;40184;53.362;5.216;2023-05-07T05:50:54;13.30;99.90
54272;DHT22;40184;53.362;5.216;2023-05-07T05:53:20;13.20;99.90
54272;DHT22;40184;53.362;5.216;2023-05-07T05:55:45;13.20;99.90
54272;DHT22;40184;53.362;5.216;2023-05-07T05:58:11;13.30;99.90
54272;DHT22;40184;53.362;5.216;2023-05-07T06:00:37;13.30;99.90
54272;DHT22;40184;53.362;5.216;2023-05-07T06:03:03;13.30;99.90
54272;DHT22;40184;53.362;5.216;2023-05-07T06:05:28;13.20;99.90
54272;DHT22;40184;53.362;5.216;2023-05-07T06:07:54;13.30;99.90
54272;DHT22;40184;53.362;5.216;2023-05-07T06:10:20;13.30;99.90
54272;DHT22;40184;53.362;5.216;2023-05-07T06:12:45;13.30;99.90
54272;DHT22;40184;53.362;5.216;2023-05-07T06:15:11;13.40;99.90
54272;DHT22;40184;53.362;5.216;2023-05-07T06:17:37;13.40;99.90
54272;DHT22;40184;53.362;5.216;2023-05-07T06:20:03;13.40;99.90
54272;DHT22;40184;53.362;5.216;2023-05-07T06:22:29;13.40;99.90
54272;DHT22;40184;53.362;5.216;2023-05-07T06:24:54;13.50;99.90
54272;DHT22;40184;53.362;5.216;2023-05-07T06:27:20;13.50;99.90
54272;DHT22;40184;53.362;5.216;2023-05-07T06:29:48;13.50;99.90
54272;DHT22;40184;53.362;5.216;2023-05-07T06:32:14;13.50;99.90
54272;DHT22;40184;53.362;5.216;2023-05-07T06:34:40;13.40;99.90
54272;DHT22;40184;53.362;5.216;2023-05-07T06:37:06;13.40;99.90
54272;DHT22;40184;53.362;5.216;2023-05-07T06:39:32;13.40;99.90
54272;DHT22;40184;53.362;5.216;2023-05-07T06:41:59;13.50;99.90
54272;DHT22;40184;53.362;5.216;2023-05-07T06:44:25;13.50;99.90
54272;DHT22;40184;53.362;5.216;2023-05-07T06:46:51;13.50;99.90
54272;DHT22;40184;53.362;5.216;2023-05-07T06:49:16;13.50;99.90
54272;DHT22;40184;53.362;5.216;2023-05-07T06:51:42;13.50;99.90
54272;DHT22;40184;53.362;5.216;2023-05-07T06:54:08;13.60;99.90
54272;DHT22;40184;53.362;5.216;2023-05-07T06:56:33;13.60;99.90
54272;DHT22;40184;53.362;5.216;2023-05-07T06:59:00;13.60;99.90
54272;DHT22;40184;53.362;5.216;2023-05-07T07:01:26;13.50;99.90
54272;DHT22;40184;53.362;5.216;2023-05-07T07:03:51;13.70;99.90
54272;DHT22;40184;53.362;5.216;2023-05-07T07:06:17;13.60;99.90
54272;DHT22;40184;53.362;5.216;2023-05-07T07:08:43;13.60;99.90
54272;DHT22;40184;53.362;5.216;2023-05-07T07:11:10;13.70;99.90
54272;DHT22;40184;53.362;5.216;2023-05-07T07:13:35;13.70;99.90
54272;DHT22;40184;53.362;5.216;2023-05-07T07:16:01;13.80;99.90
54272;DHT22;40184;53.362;5.216;2023-05-07T07:18:27;13.90;99.90
54272;DHT22;40184;53.362;5.216;2023-05-07T07:20:53;13.80;99.90
54272;DHT22;40184;53.362;5.216;2023-05-07T07:23:19;13.90;99.90
54272;DHT22;40184;53.362;5.216;2023-05-07T07:25:45;13.90;99.90
54272;DHT22;40184;53.362;5.216;2023-05-07T07:28:10;13.90;99.90
54272;DHT22;40184;53.362;5.216;2023-05-07T07:30:37;13.80;99.90
54272;DHT22;40184;53.362;5.216;2023-05-07T07:33:03;13.80;99.90
54272;DHT22;40184;53.362;5.216;2023-05-07T07:35:29;13.80;99.90
54272;DHT22;40184;53.362;5.216;2023-05-07T07:37:55;13.80;99.90
54272;DHT22;40184;53.362;5.216;2023-05-07T07:40:21;13.80;99.90
54272;DHT22;40184;53.362;5.216;2023-05-07T07:42:47;13.80;99.90
54272;DHT22;40184;53.362;5.216;2023-05-07T07:45:12;13.70;99.90
54272;DHT22;40184;53.362;5.216;2023-05-07T07:47:39;13.70;99.90
54272;DHT22;40184;53.362;5.216;2023-05-07T07:50:06;13.70;99.90
54272;DHT22;40184;53.362;5.216;2023-05-07T07:52:31;13.70;99.90
54272;DHT22;40184;53.362;5.216;2023-05-07T07:54:57;13.70;99.90
54272;DHT22;40184;53.362;5.216;2023-05-07T07:57:23;13.70;99.90
54272;DHT22;40184;53.362;5.216;2023-05-07T07:59:49;13.70;99.90
54272;DHT22;40184;53.362;5.216;2023-05-07T08:02:15;13.60;99.90
54272;DHT22;40184;53.362;5.216;2023-05-07T08:04:41;13.60;99.90
54272;DHT22;40184;53.362;5.216;2023-05-07T08:07:09;13.60;99.90
54272;DHT22;40184;53.362;5.216;2023-05-07T08:09:35;13.60;99.90
54272;DHT22;40184;53.362;5.216;2023-05-07T08:12:01;13.60;99.90
54272;DHT22;40184;53.362;5.216;2023-05-07T08:14:27;13.60;99.90
54272;DHT22;40184;53.362;5.216;2023-05-07T08:16:54;13.50;99.90
54272;DHT22;40184;53.362;5.216;2023-05-07T08:19:20;13.50;99.90
54272;DHT22;40184;53.362;5.216;2023-05-07T08:21:47;13.50;99.90
54272;DHT22;40184;53.362;5.216;2023-05-07T08:24:14;13.60;99.90
54272;DHT22;40184;53.362;5.216;2023-05-07T08:26:40;13.50;99.90
54272;DHT22;40184;53.362;5.216;2023-05-07T08:29:06;13.50;99.90
54272;DHT22;40184;53.362;5.216;2023-05-07T08:31:32;13.50;99.90
54272;DHT22;40184;53.362;5.216;2023-05-07T08:33:58;13.60;99.90
54272;DHT22;40184;53.362;5.216;2023-05-07T08:36:24;13.60;99.90
54272;DHT22;40184;53.362;5.216;2023-05-07T08:38:51;13.60;99.90
54272;DHT22;40184;53.362;5.216;2023-05-07T08:41:17;13.60;99.90
54272;DHT22;40184;53.362;5.216;2023-05-07T08:43:48;13.60;99.90
54272;DHT22;40184;53.362;5.216;2023-05-07T08:46:18;13.70;99.90
54272;DHT22;40184;53.362;5.216;2023-05-07T08:48:47;13.80;99.90
54272;DHT22;40184;53.362;5.216;2023-05-07T08:51:15;13.90;99.90
54272;DHT22;40184;53.362;5.216;2023-05-07T08:53:41;13.90;99.90
54272;DHT22;40184;53.362;5.216;2023-05-07T08:56:09;13.90;99.90
54272;DHT22;40184;53.362;5.216;2023-05-07T08:58:35;14.10;99.90
54272;DHT22;40184;53.362;5.216;2023-05-07T09:01:08;14.20;99.90
54272;DHT22;40184;53.362;5.216;2023-05-07T09:03:36;14.30;99.90
54272;DHT22;40184;53.362;5.216;2023-05-07T09:06:02;14.30;99.90
54272;DHT22;40184;53.362;5.216;2023-05-07T09:08:28;14.40;99.90
54272;DHT22;40184;53.362;5.216;2023-05-07T09:10:54;14.50;99.90
54272;DHT22;40184;53.362;5.216;2023-05-07T09:13:20;14.60;99.90
54272;DHT22;40184;53.362;5.216;2023-05-07T09:15:46;14.70;99.90
54272;DHT22;40184;53.362;5.216;2023-05-07T09:18:14;14.80;99.90
54272;DHT22;40184;53.362;5.216;2023-05-07T09:20:41;14.90;99.90
54272;DHT22;40184;53.362;5.216;2023-05-07T09:23:08;15.10;99.90
54272;DHT22;40184;53.362;5.216;2023-05-07T09:25:35;15.20;99.90
54272;DHT22;40184;53.362;5.216;2023-05-07T09:28:02;15.20;99.90
54272;DHT22;40184;53.362;5.216;2023-05-07T09:30:31;15.30;99.90
54272;DHT22;40184;53.362;5.216;2023-05-07T09:33:01;15.30;99.90
54272;DHT22;40184;53.362;5.216;2023-05-07T09:35:28;15.30;99.90
54272;DHT22;40184;53.362;5.216;2023-05-07T09:37:55;15.30;99.90
54272;DHT22;40184;53.362;5.216;2023-05-07T09:40:26;15.40;99.90
54272;DHT22;40184;53.362;5.216;2023-05-07T09:42:52;15.50;99.90
54272;DHT22;40184;53.362;5.216;2023-05-07T09:45:24;15.60;99.90
54272;DHT22;40184;53.362;5.216;2023-05-07T09:47:53;15.70;99.90
54272;DHT22;40184;53.362;5.216;2023-05-07T09:50:19;15.90;99.90
54272;DHT22;40184;53.362;5.216;2023-05-07T09:52:47;15.90;99.90
54272;DHT22;40184;53.362;5.216;2023-05-07T09:55:14;16.00;99.90
54272;DHT22;40184;53.362;5.216;2023-05-07T09:57:41;16.20;99.90
54272;DHT22;40184;53.362;5.216;2023-05-07T10:00:08;16.30;99.90
54272;DHT22;40184;53.362;5.216;2023-05-07T10:02:36;16.50;99.90
54272;DHT22;40184;53.362;5.216;2023-05-07T10:05:02;16.60;99.90
54272;DHT22;40184;53.362;5.216;2023-05-07T10:07:29;16.70;99.90
54272;DHT22;40184;53.362;5.216;2023-05-07T10:09:55;16.90;99.90
54272;DHT22;40184;53.362;5.216;2023-05-07T10:12:23;17.10;99.90
54272;DHT22;40184;53.362;5.216;2023-05-07T10:14:50;17.40;99.90
54272;DHT22;40184;53.362;5.216;2023-05-07T10:17:19;17.40;99.90
54272;DHT22;40184;53.362;5.216;2023-05-07T10:19:45;17.40;99.90
54272;DHT22;40184;53.362;5.216;2023-05-07T10:22:14;17.50;99.90
54272;DHT22;40184;53.362;5.216;2023-05-07T10:24:41;17.60;99.90
54272;DHT22;40184;53.362;5.216;2023-05-07T10:27:10;17.30;99.90
54272;DHT22;40184;53.362;5.216;2023-05-07T10:35:12;17.00;99.90
54272;DHT22;40184;53.362;5.216;2023-05-07T10:37:40;17.00;99.90
54272;DHT22;40184;53.362;5.216;2023-05-07T10:40:06;17.00;99.90
54272;DHT22;40184;53.362;5.216;2023-05-07T10:42:32;17.00;99.90
54272;DHT22;40184;53.362;5.216;2023-05-07T10:44:58;17.00;99.90
54272;DHT22;40184;53.362;5.216;2023-05-07T10:48:09;17.00;99.90
54272;DHT22;40184;53.362;5.216;2023-05-07T10:50:39;17.10;99.90
54272;DHT22;40184;53.362;5.216;2023-05-07T10:55:48;17.30;99.90
54272;DHT22;40184;53.362;5.216;2023-05-07T10:58:24;17.20;99.90
54272;DHT22;40184;53.362;5.216;2023-05-07T11:01:00;17.20;99.90
54272;DHT22;40184;53.362;5.216;2023-05-07T11:03:27;17.30;99.90
54272;DHT22;40184;53.362;5.216;2023-05-07T11:06:13;17.30;99.90
54272;DHT22;40184;53.362;5.216;2023-05-07T11:08:57;17.50;99.90
54272;DHT22;40184;53.362;5.216;2023-05-07T11:11:45;17.70;99.90
54272;DHT22;40184;53.362;5.216;2023-05-07T11:17:07;18.10;99.90
54272;DHT22;40184;53.362;5.216;2023-05-07T11:19:53;18.10;99.90
54272;DHT22;40184;53.362;5.216;2023-05-07T11:25:00;18.40;99.90
54272;DHT22;40184;53.362;5.216;2023-05-07T11:27:27;18.70;99.90
54272;DHT22;40184;53.362;5.216;2023-05-07T11:29:53;18.80;99.90
54272;DHT22;40184;53.362;5.216;2023-05-07T11:32:29;18.90;99.90
54272;DHT22;40184;53.362;5.216;2023-05-07T11:34:56;18.90;99.90
54272;DHT22;40184;53.362;5.216;2023-05-07T11:37:23;19.10;99.90
54272;DHT22;40184;53.362;5.216;2023-05-07T11:39:49;19.40;99.90
54272;DHT22;40184;53.362;5.216;2023-05-07T11:42:30;19.60;99.90
54272;DHT22;40184;53.362;5.216;2023-05-07T11:44:57;19.80;99.90
54272;DHT22;40184;53.362;5.216;2023-05-07T11:47:24;19.90;99.90
54272;DHT22;40184;53.362;5.216;2023-05-07T11:49:52;20.10;99.90
54272;DHT22;40184;53.362;5.216;2023-05-07T11:52:19;19.70;99.90
54272;DHT22;40184;53.362;5.216;2023-05-07T11:54:52;19.50;99.90
54272;DHT22;40184;53.362;5.216;2023-05-07T11:57:18;19.40;99.90
54272;DHT22;40184;53.362;5.216;2023-05-07T11:59:45;19.40;99.90
54272;DHT22;40184;53.362;5.216;2023-05-07T12:02:16;19.30;99.90
54272;DHT22;40184;53.362;5.216;2023-05-07T12:04:42;19.30;99.90
54272;DHT22;40184;53.362;5.216;2023-05-07T12:07:12;19.40;99.90
54272;DHT22;40184;53.362;5.216;2023-05-07T12:09:39;19.40;99.90
54272;DHT22;40184;53.362;5.216;2023-05-07T12:12:05;19.60;99.90
54272;DHT22;40184;53.362;5.216;2023-05-07T12:14:31;19.80;99.90
54272;DHT22;40184;53.362;5.216;2023-05-07T12:16:59;19.70;99.90
54272;DHT22;40184;53.362;5.216;2023-05-07T12:19:29;19.90;99.90
54272;DHT22;40184;53.362;5.216;2023-05-07T12:21:55;19.70;99.90
54272;DHT22;40184;53.362;5.216;2023-05-07T12:24:22;19.70;99.90
54272;DHT22;40184;53.362;5.216;2023-05-07T12:26:48;19.70;99.90
54272;DHT22;40184;53.362;5.216;2023-05-07T12:29:15;19.80;99.90
54272;DHT22;40184;53.362;5.216;2023-05-07T12:31:41;19.90;99.90
54272;DHT22;40184;53.362;5.216;2023-05-07T12:34:07;19.90;99.90
54272;DHT22;40184;53.362;5.216;2023-05-07T12:36:42;20.10;99.90
54272;DHT22;40184;53.362;5.216;2023-05-07T12:39:08;20.10;99.90
54272;DHT22;40184;53.362;5.216;2023-05-07T12:41:58;20.30;99.90
54272;DHT22;40184;53.362;5.216;2023-05-07T12:44:25;20.30;99.90
54272;DHT22;40184;53.362;5.216;2023-05-07T12:46:54;20.50;99.90
54272;DHT22;40184;53.362;5.216;2023-05-07T12:49:19;20.40;99.90
54272;DHT22;40184;53.362;5.216;2023-05-07T12:51:47;20.50;99.90
54272;DHT22;40184;53.362;5.216;2023-05-07T12:54:14;20.40;99.90
54272;DHT22;40184;53.362;5.216;2023-05-07T12:57:03;20.00;99.90
54272;DHT22;40184;53.362;5.216;2023-05-07T12:59:40;19.90;99.90
54272;DHT22;40184;53.362;5.216;2023-05-07T13:02:07;19.80;99.90
54272;DHT22;40184;53.362;5.216;2023-05-07T13:04:33;19.90;99.90
54272;DHT22;40184;53.362;5.216;2023-05-07T13:07:00;19.80;99.90
54272;DHT22;40184;53.362;5.216;2023-05-07T13:09:26;19.70;99.90
54272;DHT22;40184;53.362;5.216;2023-05-07T13:11:52;19.70;99.90
54272;DHT22;40184;53.362;5.216;2023-05-07T13:14:17;19.70;99.90
54272;DHT22;40184;53.362;5.216;2023-05-07T13:16:45;19.60;99.90
54272;DHT22;40184;53.362;5.216;2023-05-07T13:19:11;19.50;99.90
54272;DHT22;40184;53.362;5.216;2023-05-07T13:21:36;19.40;99.90
54272;DHT22;40184;53.362;5.216;2023-05-07T13:24:02;19.40;99.90
54272;DHT22;40184;53.362;5.216;2023-05-07T13:26:30;19.40;99.90
54272;DHT22;40184;53.362;5.216;2023-05-07T13:28:56;19.50;99.90
54272;DHT22;40184;53.362;5.216;2023-05-07T13:31:22;19.60;99.90
54272;DHT22;40184;53.362;5.216;2023-05-07T13:33:48;19.70;99.90
54272;DHT22;40184;53.362;5.216;2023-05-07T13:36:14;19.80;99.90
54272;DHT22;40184;53.362;5.216;2023-05-07T13:38:40;19.80;99.90
54272;DHT22;40184;53.362;5.216;2023-05-07T13:41:05;19.90;99.90
54272;DHT22;40184;53.362;5.216;2023-05-07T13:43:31;20.00;99.90
54272;DHT22;40184;53.362;5.216;2023-05-07T13:45:59;20.20;99.90
54272;DHT22;40184;53.362;5.216;2023-05-07T13:48:24;20.20;99.90
54272;DHT22;40184;53.362;5.216;2023-05-07T13:50:50;20.50;99.90
54272;DHT22;40184;53.362;5.216;2023-05-07T13:53:17;20.60;99.90
54272;DHT22;40184;53.362;5.216;2023-05-07T13:55:44;20.60;99.90
54272;DHT22;40184;53.362;5.216;2023-05-07T13:58:10;20.60;99.90
54272;DHT22;40184;53.362;5.216;2023-05-07T14:00:35;20.60;99.90
54272;DHT22;40184;53.362;5.216;2023-05-07T14:03:01;20.30;99.90
54272;DHT22;40184;53.362;5.216;2023-05-07T14:05:27;20.30;99.90
54272;DHT22;40184;53.362;5.216;2023-05-07T14:07:54;20.30;99.90
54272;DHT22;40184;53.362;5.216;2023-05-07T14:10:21;20.70;99.90
54272;DHT22;40184;53.362;5.216;2023-05-07T14:12:47;21.40;99.90
54272;DHT22;40184;53.362;5.216;2023-05-07T14:15:13;21.60;99.90
54272;DHT22;40184;53.362;5.216;2023-05-07T14:17:39;22.30;99.90
54272;DHT22;40184;53.362;5.216;2023-05-07T14:20:05;22.50;99.90
54272;DHT22;40184;53.362;5.216;2023-05-07T14:22:32;22.30;99.90
54272;DHT22;40184;53.362;5.216;2023-05-07T14:24:58;22.40;99.90
54272;DHT22;40184;53.362;5.216;2023-05-07T14:27:23;22.30;99.90
54272;DHT22;40184;53.362;5.216;2023-05-07T14:29:49;21.90;99.90
54272;DHT22;40184;53.362;5.216;2023-05-07T14:32:19;22.00;99.90
54272;DHT22;40184;53.362;5.216;2023-05-07T14:34:46;22.20;99.90
54272;DHT22;40184;53.362;5.216;2023-05-07T14:37:11;22.10;99.90
54272;DHT22;40184;53.362;5.216;2023-05-07T14:39:37;21.80;99.90
54272;DHT22;40184;53.362;5.216;2023-05-07T14:42:03;21.60;99.90
54272;DHT22;40184;53.362;5.216;2023-05-07T14:44:29;22.20;99.90
54272;DHT22;40184;53.362;5.216;2023-05-07T14:46:55;22.60;99.90
54272;DHT22;40184;53.362;5.216;2023-05-07T14:49:20;22.50;99.90
54272;DHT22;40184;53.362;5.216;2023-05-07T14:51:46;22.60;99.90
54272;DHT22;40184;53.362;5.216;2023-05-07T14:54:12;22.30;99.90
54272;DHT22;40184;53.362;5.216;2023-05-07T14:56:38;22.60;99.90
54272;DHT22;40184;53.362;5.216;2023-05-07T14:59:05;22.70;99.90
54272;DHT22;40184;53.362;5.216;2023-05-07T15:01:31;22.30;99.90
54272;DHT22;40184;53.362;5.216;2023-05-07T15:03:56;22.20;99.90
54272;DHT22;40184;53.362;5.216;2023-05-07T15:06:22;21.80;99.90
54272;DHT22;40184;53.362;5.216;2023-05-07T15:08:48;21.60;99.90
54272;DHT22;40184;53.362;5.216;2023-05-07T15:11:14;21.10;99.90
54272;DHT22;40184;53.362;5.216;2023-05-07T15:13:41;20.80;99.90
54272;DHT22;40184;53.362;5.216;2023-05-07T15:16:07;20.60;99.90
54272;DHT22;40184;53.362;5.216;2023-05-07T15:18:33;20.40;99.90
54272;DHT22;40184;53.362;5.216;2023-05-07T15:20:59;20.40;99.90
54272;DHT22;40184;53.362;5.216;2023-05-07T15:23:25;20.40;99.90
54272;DHT22;40184;53.362;5.216;2023-05-07T15:25:52;20.40;99.90
54272;DHT22;40184;53.362;5.216;2023-05-07T15:28:17;20.40;99.90
54272;DHT22;40184;53.362;5.216;2023-05-07T15:30:43;20.30;99.90
54272;DHT22;40184;53.362;5.216;2023-05-07T15:33:09;20.20;99.90
54272;DHT22;40184;53.362;5.216;2023-05-07T15:35:35;20.20;99.90
54272;DHT22;40184;53.362;5.216;2023-05-07T15:38:00;20.20;99.90
54272;DHT22;40184;53.362;5.216;2023-05-07T15:40:28;20.10;99.90